Tropical Cyclones
[Index]
Main Index Home Page Stock Weather Photos Extreme Storms Discussion Storm News and Storm Chasing Reports Tropical Cyclones / Hurricanes / Typhoons Weather Data and Links Wild Fires / Bushfires Weather Observation Techniques Weather Picture Catalogue Tornado Pictures and Reports Stock Video Footage and DVDs for sale
Season 1978-1979 Tropical Cyclone GRETA Track Map
Season 1978-1979 Summaries: [BoM-AU] [JTWC-AU] [JTWC-SIO] [JTWC-SPAC] [JTWC-SH]
<<- Previous TC | BoM 1978-1979 Season | Next TC ->>

click for intensity scale information  Lat/long Grid: Show Hide

 Date Labels: Show Hide

Bureau of Meteorology Tropical Cyclone Data

Name: GRETA
Number: 585 / 197879_02

08 Jan 1979 11:00 UTC to 13 Jan 1979 05:00 UTC

    date/time    lat    long    hPa   cat  kts
1979-01-08 11   13.9   137.2   1000                     
1979-01-08 17   13.5   137.4    996                     
1979-01-08 23   13.5   137.8    997                     
1979-01-09 05   13.4   138.4    995    1                
1979-01-09 11   13.1   139.2    994    1                
1979-01-09 17   13.0   140.0    990    1                
1979-01-09 23   12.8   140.9    986    1                
1979-01-10 02   12.8   141.5    986    1                
1979-01-10 05   12.8   142.1    986    1                
1979-01-10 11   13.0   143.2    990    1                
1979-01-10 17   13.3   143.5    990    1                
1979-01-10 23   13.8   143.7    990    1                
1979-01-11 05   14.5   144.0    992    1                
1979-01-11 08   14.7   144.5    990    1                
1979-01-11 11   14.8   144.7    992    1                
1979-01-11 14   15.0   144.8    992    1                
1979-01-11 17   15.2   144.8    994    1                
1979-01-11 20   15.3   144.5    996                     
1979-01-11 23   15.5   144.0    997                     
1979-01-12 05   16.1   142.3    996                     
1979-01-12 07   16.3   141.5    996                     
1979-01-12 11   16.7   140.0    997                     
1979-01-12 14   17.0   139.3    996                     
1979-01-12 17   17.3   139.3    996                     
1979-01-12 23   17.5   140.0    997                     
1979-01-13 02   17.7   139.8    997                     
1979-01-13 05   17.8   139.3    995    1                
Winds are 10-min average.

Tropical cyclone tracks developed by Michael Bath using data from the Bureau of Meteorology and Google Maps.


[Australian Severe Weather index] [Copyright Notice] [Email Contacts] [Search This Site] [Privacy Policy]
Document: tropical_cyclone_greta.htm Updated: 30 May 2013